createdAt,value
2022-11-22T00:00:28.308Z,49.97
2022-11-22T00:02:54.979Z,50.31
2022-11-22T00:05:22.047Z,49.65
2022-11-22T00:07:48.487Z,50.06
2022-11-22T00:10:15.554Z,49.73
2022-11-22T00:12:42.088Z,49.66
2022-11-22T00:15:09.749Z,49.67
2022-11-22T00:17:36.821Z,49.32
2022-11-22T00:20:04.745Z,49.69
2022-11-22T00:22:32.311Z,50.28
2022-11-22T00:24:58.730Z,50.17
2022-11-22T00:27:26.409Z,49.44
2022-11-22T00:29:52.761Z,50.07
2022-11-22T00:32:19.134Z,50.04
2022-11-22T00:34:45.727Z,50.37
2022-11-22T00:37:13.079Z,49.93
2022-11-22T00:39:39.489Z,49.79
2022-11-22T00:42:05.782Z,49.99
2022-11-22T00:44:32.294Z,50.51
2022-11-22T00:46:58.867Z,50.03
2022-11-22T00:49:25.287Z,50.27
2022-11-22T00:51:51.874Z,49.87
2022-11-22T00:54:18.425Z,49.67
2022-11-22T00:56:44.972Z,49.91
2022-11-22T00:59:11.363Z,49.88
2022-11-22T01:01:37.816Z,49.74
2022-11-22T01:04:05.118Z,49.96
2022-11-22T01:06:31.819Z,49.81
2022-11-22T01:08:59.379Z,49.80
2022-11-22T01:11:25.730Z,49.31
2022-11-22T01:13:52.147Z,49.90
2022-11-22T01:16:18.662Z,49.39
2022-11-22T01:18:45.699Z,49.59
2022-11-22T01:21:12.734Z,49.53
2022-11-22T01:23:39.369Z,50.06
2022-11-22T01:26:09.374Z,49.65
2022-11-22T01:28:36.269Z,49.63
2022-11-22T01:31:03.473Z,50.35
2022-11-22T01:33:29.887Z,49.49
2022-11-22T01:35:58.233Z,49.38
2022-11-22T01:38:25.193Z,50.11
2022-11-22T01:40:52.262Z,49.84
2022-11-22T01:43:24.579Z,49.66
2022-11-22T01:45:53.518Z,49.77
2022-11-22T01:48:28.299Z,49.65
2022-11-22T01:51:00.708Z,49.14
2022-11-22T01:53:32.249Z,49.74
2022-11-22T01:56:01.101Z,49.75
2022-11-22T01:58:31.089Z,49.80
2022-11-22T02:00:57.590Z,49.61
2022-11-22T02:03:25.263Z,49.97
2022-11-22T02:05:53.604Z,49.35
2022-11-22T02:08:37.837Z,49.53
2022-11-22T02:11:05.230Z,49.57
2022-11-22T02:13:37.541Z,50.21
2022-11-22T02:16:04.047Z,49.92
2022-11-22T02:18:30.553Z,50.56
2022-11-22T02:20:58.452Z,50.46
2022-11-22T02:23:50.607Z,50.84
2022-11-22T02:26:17.059Z,50.30
2022-11-22T02:28:43.640Z,50.51
2022-11-22T02:31:33.718Z,50.65
2022-11-22T02:34:01.702Z,50.93
2022-11-22T02:36:30.198Z,50.93
2022-11-22T02:38:56.821Z,50.40
2022-11-22T02:41:23.262Z,51.06
2022-11-22T02:43:50.371Z,51.23
2022-11-22T02:46:20.577Z,51.17
2022-11-22T02:48:47.555Z,50.51
2022-11-22T02:51:16.888Z,51.66
2022-11-22T02:53:44.938Z,50.70
2022-11-22T02:56:11.684Z,51.01
2022-11-22T02:58:38.609Z,51.31
2022-11-22T03:01:05.380Z,51.13
2022-11-22T03:03:32.921Z,51.53
2022-11-22T03:05:59.423Z,51.28
2022-11-22T03:08:25.703Z,51.30
2022-11-22T03:10:52.232Z,51.56
2022-11-22T03:13:18.561Z,51.31
2022-11-22T03:15:50.832Z,51.46
2022-11-22T03:18:17.123Z,51.34
2022-11-22T03:20:43.593Z,51.64
2022-11-22T03:23:09.884Z,51.03
2022-11-22T03:25:47.456Z,51.22
2022-11-22T03:28:13.834Z,51.63
2022-11-22T03:30:41.233Z,51.28
2022-11-22T03:33:07.811Z,51.48
2022-11-22T03:35:34.183Z,51.57
2022-11-22T03:38:00.676Z,51.24
2022-11-22T03:40:27.035Z,51.19
2022-11-22T03:42:54.413Z,51.10
2022-11-22T03:45:20.782Z,51.27
2022-11-22T03:47:48.490Z,51.06
2022-11-22T03:50:16.188Z,51.05
2022-11-22T03:52:42.566Z,51.33
2022-11-22T03:55:09.322Z,51.52
2022-11-22T03:57:35.852Z,51.24
2022-11-22T04:00:02.143Z,52.03
2022-11-22T04:02:28.456Z,50.89
2022-11-22T04:04:54.809Z,50.92
2022-11-22T04:07:21.379Z,51.05
2022-11-22T04:09:48.016Z,51.24
2022-11-22T04:12:14.624Z,51.24
2022-11-22T04:14:59.359Z,51.23
2022-11-22T04:17:40.695Z,51.72
2022-11-22T04:20:38.044Z,50.94
2022-11-22T04:23:10.225Z,51.24
2022-11-22T04:25:39.178Z,50.79
2022-11-22T04:28:07.241Z,50.73
2022-11-22T04:30:52.914Z,51.19
2022-11-22T04:33:19.482Z,51.33
2022-11-22T04:35:47.432Z,51.14
2022-11-22T04:38:14.529Z,51.07
2022-11-22T04:40:41.463Z,51.71
2022-11-22T04:43:28.563Z,52.02
2022-11-22T04:45:54.921Z,51.96
2022-11-22T04:48:21.246Z,52.13
2022-11-22T04:51:06.032Z,52.40
2022-11-22T04:53:32.617Z,52.51
2022-11-22T04:55:58.958Z,52.12
2022-11-22T04:58:25.394Z,51.99
2022-11-22T05:00:52.837Z,51.81
2022-11-22T05:03:19.461Z,51.77
2022-11-22T05:05:45.957Z,51.67
2022-11-22T05:08:13.114Z,51.15
2022-11-22T05:11:09.495Z,51.35
2022-11-22T05:13:40.914Z,50.92
2022-11-22T05:16:09.684Z,51.00
2022-11-22T05:18:37.563Z,51.10
2022-11-22T05:21:11.814Z,51.42
2022-11-22T05:23:56.922Z,51.13
2022-11-22T05:26:29.148Z,51.13
2022-11-22T05:28:58.105Z,51.29
2022-11-22T05:31:27.302Z,51.01
2022-11-22T05:33:55.516Z,50.77
2022-11-22T05:36:22.929Z,51.06
2022-11-22T05:38:49.690Z,51.01
2022-11-22T05:41:17.151Z,51.34
2022-11-22T05:43:45.222Z,51.34
2022-11-22T05:46:14.254Z,51.04
2022-11-22T05:48:44.363Z,51.42
2022-11-22T05:51:14.220Z,51.35
2022-11-22T05:53:42.193Z,51.57
2022-11-22T05:56:10.949Z,51.63
2022-11-22T05:58:37.669Z,51.65
2022-11-22T06:01:17.066Z,51.54
2022-11-22T06:03:45.492Z,51.77
2022-11-22T06:06:12.268Z,51.95
2022-11-22T06:08:46.709Z,51.70
2022-11-22T06:11:19.620Z,51.96
2022-11-22T06:13:48.888Z,52.21
2022-11-22T06:16:16.106Z,52.45
2022-11-22T06:18:42.873Z,52.49
2022-11-22T06:21:15.502Z,53.05
2022-11-22T06:23:42.157Z,52.64
2022-11-22T06:26:14.772Z,53.26
2022-11-22T06:28:42.012Z,52.71
2022-11-22T06:31:14.307Z,53.15
2022-11-22T06:33:41.366Z,52.59
2022-11-22T06:36:10.920Z,52.92
2022-11-22T06:38:38.344Z,52.92
2022-11-22T06:41:07.444Z,52.97
2022-11-22T06:43:35.160Z,52.86
2022-11-22T06:46:03.245Z,52.72
2022-11-22T06:48:31.435Z,52.67
2022-11-22T06:51:12.680Z,52.96
2022-11-22T06:53:47.445Z,52.68
2022-11-22T06:56:16.028Z,52.48
2022-11-22T06:58:43.182Z,52.59
2022-11-22T07:01:15.458Z,52.31
2022-11-22T07:03:42.732Z,52.81
2022-11-22T07:06:11.154Z,52.53
2022-11-22T07:08:38.885Z,52.61
2022-11-22T07:11:12.104Z,53.06
2022-11-22T07:13:38.904Z,52.38
2022-11-22T07:16:08.076Z,52.56
2022-11-22T07:18:34.465Z,52.73
2022-11-22T07:21:10.923Z,52.35
2022-11-22T07:23:41.073Z,52.33
2022-11-22T07:26:07.529Z,52.32
2022-11-22T07:28:34.152Z,52.21
2022-11-22T07:31:02.525Z,52.41
2022-11-22T07:33:30.033Z,52.57
2022-11-22T07:36:03.361Z,52.64
2022-11-22T07:38:29.892Z,52.16
2022-11-22T07:40:56.253Z,52.19
2022-11-22T07:43:22.765Z,52.68
2022-11-22T07:45:49.100Z,51.92
2022-11-22T07:48:15.633Z,52.34
2022-11-22T07:50:42.580Z,52.37
2022-11-22T07:53:10.361Z,52.22
2022-11-22T07:55:36.774Z,52.24
2022-11-22T07:58:03.274Z,52.21
2022-11-22T08:00:29.959Z,52.08
2022-11-22T08:02:57.709Z,52.20
2022-11-22T08:05:24.134Z,51.84
2022-11-22T08:07:54.104Z,51.96
2022-11-22T08:10:21.401Z,52.05
2022-11-22T08:12:48.047Z,51.68
2022-11-22T08:15:15.849Z,52.00
2022-11-22T08:17:42.284Z,51.73
2022-11-22T08:20:10.222Z,51.71
2022-11-22T08:22:39.006Z,51.93
2022-11-22T08:25:08.839Z,51.30
2022-11-22T08:27:36.494Z,51.56
2022-11-22T08:30:05.262Z,51.46
2022-11-22T08:32:31.584Z,51.64
2022-11-22T08:34:57.953Z,51.47
2022-11-22T08:37:24.346Z,51.19
2022-11-22T08:39:50.774Z,50.40
2022-11-22T08:42:18.946Z,50.46
2022-11-22T08:44:45.241Z,51.20
2022-11-22T08:47:13.386Z,50.11
2022-11-22T08:49:40.881Z,50.80
2022-11-22T08:52:07.468Z,50.57
2022-11-22T08:54:37.684Z,50.51
2022-11-22T08:57:04.613Z,50.43
2022-11-22T08:59:31.164Z,50.77
2022-11-22T09:01:57.788Z,50.46
2022-11-22T09:04:24.327Z,50.62
2022-11-22T09:09:38.724Z,50.62
2022-11-22T09:12:05.727Z,50.41
2022-11-22T09:14:32.095Z,50.07
2022-11-22T09:16:58.588Z,50.45
2022-11-22T09:19:25.576Z,50.03
2022-11-22T09:21:52.131Z,50.12
2022-11-22T09:24:18.524Z,49.84
2022-11-22T09:26:45.234Z,49.44
2022-11-22T09:29:11.915Z,49.74
2022-11-22T09:31:38.648Z,48.80
2022-11-22T09:34:04.991Z,48.89
2022-11-22T09:36:31.322Z,49.74
2022-11-22T09:38:59.844Z,48.91
2022-11-22T09:41:46.185Z,49.50
2022-11-22T09:44:54.610Z,48.26
2022-11-22T09:47:41.859Z,47.44
2022-11-22T09:50:29.459Z,47.42
2022-11-22T09:53:03.434Z,47.75
2022-11-22T09:55:38.054Z,47.72
2022-11-22T09:58:12.515Z,47.08
2022-11-22T10:00:44.433Z,47.37
2022-11-22T10:03:25.139Z,46.84
2022-11-22T10:05:58.235Z,46.19
2022-11-22T10:08:24.560Z,46.89
2022-11-22T10:10:54.379Z,46.56
2022-11-22T10:13:31.539Z,46.13
2022-11-22T10:16:09.831Z,46.74
2022-11-22T10:18:59.182Z,45.87
2022-11-22T10:21:27.492Z,46.61
2022-11-22T10:23:54.074Z,46.24
2022-11-22T10:26:29.347Z,45.13
2022-11-22T10:29:35.790Z,44.98
2022-11-22T10:32:22.677Z,45.14
2022-11-22T10:35:13.530Z,45.11
2022-11-22T10:38:17.601Z,45.04
2022-11-22T10:40:57.630Z,45.00
2022-11-22T10:43:36.124Z,45.79
2022-11-22T10:46:06.362Z,46.14
2022-11-22T10:48:42.367Z,44.47
2022-11-22T10:51:33.535Z,44.85
2022-11-22T10:54:20.357Z,45.26
2022-11-22T10:56:55.369Z,44.80
2022-11-22T10:59:43.870Z,44.56
2022-11-22T11:02:13.302Z,45.46
2022-11-22T11:04:43.151Z,44.84
2022-11-22T11:07:20.523Z,44.15
2022-11-22T11:10:11.473Z,44.34
2022-11-22T11:12:46.567Z,44.15
2022-11-22T11:15:20.976Z,44.50
2022-11-22T11:17:53.419Z,44.28
2022-11-22T11:20:27.831Z,44.25
2022-11-22T11:25:43.575Z,44.19
2022-11-22T11:28:18.689Z,43.74
2022-11-22T11:30:57.205Z,43.52
2022-11-22T11:33:31.091Z,44.76
2022-11-22T11:36:05.493Z,43.31
2022-11-22T11:38:41.049Z,43.51
2022-11-22T11:41:28.873Z,43.19
2022-11-22T11:43:59.581Z,43.60
2022-11-22T11:46:44.100Z,43.43
2022-11-22T11:49:18.607Z,42.51
2022-11-22T11:51:54.378Z,43.30
2022-11-22T11:54:23.918Z,43.33
2022-11-22T11:56:57.853Z,42.78
2022-11-22T11:59:44.574Z,42.65
2022-11-22T12:02:14.965Z,43.00
2022-11-22T12:04:59.503Z,42.55
2022-11-22T12:07:28.550Z,42.86
2022-11-22T12:09:56.083Z,42.96
2022-11-22T12:12:34.236Z,42.31
2022-11-22T12:15:36.404Z,42.70
2022-11-22T12:18:33.036Z,42.96
2022-11-22T12:21:02.604Z,43.12
2022-11-22T12:23:50.900Z,42.38
2022-11-22T12:26:18.384Z,42.29
2022-11-22T12:28:44.713Z,42.23
2022-11-22T12:31:44.641Z,41.52
2022-11-22T12:34:48.402Z,41.82
2022-11-22T12:37:19.066Z,41.76
2022-11-22T12:39:51.440Z,41.95
2022-11-22T12:42:29.734Z,41.80
2022-11-22T12:45:11.786Z,41.94
2022-11-22T12:47:44.619Z,41.86
2022-11-22T12:50:35.475Z,41.82
2022-11-22T12:53:14.140Z,41.58
2022-11-22T12:55:49.442Z,41.67
2022-11-22T12:58:24.402Z,42.08
2022-11-22T13:01:03.390Z,42.01
2022-11-22T13:03:36.604Z,42.36
2022-11-22T13:06:08.593Z,42.19
2022-11-22T13:08:51.620Z,41.83
2022-11-22T13:11:27.981Z,41.94
2022-11-22T13:14:08.131Z,41.79
2022-11-22T13:16:34.647Z,42.42
2022-11-22T13:19:06.353Z,41.83
2022-11-22T13:22:00.112Z,41.60
2022-11-22T13:24:42.920Z,41.59
2022-11-22T13:27:27.981Z,42.36
2022-11-22T13:29:56.782Z,42.17
2022-11-22T13:32:28.026Z,42.20
2022-11-22T13:35:03.723Z,41.47
2022-11-22T13:37:33.674Z,41.99
2022-11-22T13:40:15.257Z,41.36
2022-11-22T13:42:42.313Z,42.22
2022-11-22T13:45:25.243Z,41.88
2022-11-22T13:47:53.530Z,42.05
2022-11-22T13:51:01.686Z,41.79
2022-11-22T13:53:29.220Z,42.95
2022-11-22T13:55:57.592Z,42.11
2022-11-22T13:58:24.192Z,41.82
2022-11-22T14:00:51.959Z,41.86
2022-11-22T14:03:33.485Z,42.07
2022-11-22T14:06:01.180Z,42.05
2022-11-22T14:08:35.732Z,41.56
2022-11-22T14:11:13.802Z,41.53
2022-11-22T14:14:06.902Z,41.44
2022-11-22T14:16:56.333Z,41.57
2022-11-22T14:19:51.163Z,41.58
2022-11-22T14:22:27.068Z,42.10
2022-11-22T14:25:06.123Z,41.76
2022-11-22T14:28:08.888Z,41.70
2022-11-22T14:30:52.743Z,42.12
2022-11-22T14:33:22.505Z,42.28
2022-11-22T14:36:07.006Z,41.97
2022-11-22T14:38:35.532Z,42.41
2022-11-22T14:41:20.758Z,42.70
2022-11-22T14:43:50.021Z,42.40
2022-11-22T14:46:51.235Z,42.10
2022-11-22T14:49:27.131Z,41.94
2022-11-22T14:51:57.455Z,42.34
2022-11-22T14:54:30.374Z,41.89
2022-11-22T14:57:04.304Z,42.27
2022-11-22T15:00:03.242Z,42.14
2022-11-22T15:02:51.843Z,42.20
2022-11-22T15:09:10.443Z,42.31
2022-11-22T15:09:14.564Z,42.61
2022-11-22T15:11:39.346Z,42.17
2022-11-22T15:14:17.886Z,42.77
2022-11-22T15:59:41.789Z,43.43
2022-11-22T16:02:19.594Z,43.80
2022-11-22T16:06:04.696Z,43.83
2022-11-22T16:07:44.729Z,43.89
2022-11-22T16:10:23.947Z,43.50
2022-11-22T16:12:51.839Z,44.14
2022-11-22T16:15:29.139Z,43.69
2022-11-22T16:18:08.542Z,44.02
2022-11-22T16:20:38.795Z,44.40
2022-11-22T16:23:11.926Z,44.33
2022-11-22T16:25:41.646Z,44.11
2022-11-22T16:28:20.472Z,44.58
2022-11-22T16:30:48.094Z,44.28
2022-11-22T16:33:14.639Z,44.49
2022-11-22T16:35:40.980Z,44.58
2022-11-22T16:38:07.685Z,44.18
2022-11-22T16:40:44.074Z,44.25
2022-11-22T16:43:24.748Z,44.86
2022-11-22T16:45:51.847Z,44.90
2022-11-22T16:48:37.640Z,44.68
2022-11-22T16:51:06.627Z,44.67
2022-11-22T16:53:45.343Z,44.86
2022-11-22T16:56:19.212Z,44.95
2022-11-22T16:58:46.599Z,45.15
2022-11-22T17:01:16.139Z,45.88
2022-11-22T17:03:45.036Z,45.60
2022-11-22T17:06:18.579Z,45.56
2022-11-22T17:08:46.895Z,45.57
2022-11-22T17:11:15.949Z,45.85
2022-11-22T17:13:42.803Z,45.70
2022-11-22T17:16:10.865Z,45.66
2022-11-22T17:18:38.328Z,45.39
2022-11-22T17:21:10.418Z,45.12
2022-11-22T17:23:39.020Z,45.51
2022-11-22T17:26:05.538Z,45.47
2022-11-22T17:28:33.666Z,45.44
2022-11-22T17:31:04.512Z,45.60
2022-11-22T17:33:31.058Z,45.84
2022-11-22T17:35:57.586Z,46.25
2022-11-22T17:38:24.092Z,46.07
2022-11-22T17:40:58.466Z,45.85
2022-11-22T17:43:24.795Z,45.79
2022-11-22T17:45:52.347Z,45.91
2022-11-22T17:48:18.762Z,46.35
2022-11-22T17:50:45.166Z,46.39
2022-11-22T17:53:11.655Z,46.23
2022-11-22T17:56:02.639Z,46.45
2022-11-22T17:58:25.259Z,46.45
2022-11-22T18:00:51.582Z,46.73
2022-11-22T18:03:17.941Z,46.01
2022-11-22T18:05:44.371Z,46.26
2022-11-22T18:08:11.459Z,46.45
2022-11-22T18:10:38.419Z,46.36
2022-11-22T18:13:20.859Z,46.44
2022-11-22T18:16:00.135Z,46.24
2022-11-22T18:18:55.011Z,46.60
2022-11-22T18:21:17.652Z,46.69
2022-11-22T18:23:45.848Z,46.58
2022-11-22T18:29:35.161Z,46.18
2022-11-22T18:31:52.038Z,46.20
2022-11-22T18:34:18.936Z,46.39
2022-11-22T18:39:35.826Z,46.95
2022-11-22T18:42:03.904Z,46.91
2022-11-22T18:44:30.423Z,46.58
2022-11-22T18:46:57.089Z,47.02
2022-11-22T18:49:23.461Z,47.20
2022-11-22T18:51:49.873Z,46.54
2022-11-22T18:54:16.520Z,46.87
2022-11-22T18:56:42.977Z,47.20
2022-11-22T18:59:12.575Z,47.33
2022-11-22T19:01:39.622Z,46.71
2022-11-22T19:04:06.148Z,47.42
2022-11-22T19:06:32.724Z,47.03
2022-11-22T19:08:59.091Z,47.43
2022-11-22T19:11:26.168Z,47.55
2022-11-22T19:13:52.904Z,47.84
2022-11-22T19:16:22.447Z,47.95
2022-11-22T19:18:49.933Z,47.72
2022-11-22T19:21:18.760Z,47.34
2022-11-22T19:23:45.818Z,47.27
2022-11-22T19:26:19.344Z,47.71
2022-11-22T19:28:52.083Z,47.75
2022-11-22T19:31:20.396Z,47.71
2022-11-22T19:33:47.350Z,47.73
2022-11-22T19:36:19.054Z,47.73
2022-11-22T19:38:45.861Z,47.54
2022-11-22T19:41:20.403Z,47.44
2022-11-22T19:43:49.074Z,48.21
2022-11-22T19:46:17.598Z,47.68
2022-11-22T19:48:47.476Z,48.00
2022-11-22T19:51:15.524Z,47.84
2022-11-22T19:53:42.342Z,47.80
2022-11-22T19:56:14.478Z,48.31
2022-11-22T19:58:41.466Z,47.90
2022-11-22T20:01:10.682Z,48.32
2022-11-22T20:03:39.151Z,47.60
2022-11-22T20:06:08.499Z,48.15
2022-11-22T20:08:35.487Z,48.31
2022-11-22T20:11:02.116Z,48.38
2022-11-22T20:13:29.729Z,48.22
2022-11-22T20:15:57.300Z,48.67
2022-11-22T20:18:24.006Z,48.88
2022-11-22T20:20:51.617Z,48.81
2022-11-22T20:23:17.957Z,49.02
2022-11-22T20:25:44.616Z,49.24
2022-11-22T20:28:12.772Z,49.31
2022-11-22T20:30:39.344Z,49.24
2022-11-22T20:33:05.779Z,49.19
2022-11-22T20:35:32.290Z,49.00
2022-11-22T20:38:00.214Z,49.60
2022-11-22T20:40:27.776Z,49.60
2022-11-22T20:42:54.320Z,48.93
2022-11-22T20:45:21.173Z,49.60
2022-11-22T20:47:48.756Z,49.51
2022-11-22T20:50:15.562Z,49.17
2022-11-22T20:52:42.092Z,49.54
2022-11-22T20:55:10.547Z,49.18
2022-11-22T20:57:38.500Z,49.38
2022-11-22T21:00:05.273Z,49.35
2022-11-22T21:02:34.442Z,49.30
2022-11-22T21:05:00.936Z,49.18
2022-11-22T21:07:27.636Z,49.58
2022-11-22T21:09:56.371Z,49.94
2022-11-22T21:12:22.873Z,49.54
2022-11-22T21:14:53.505Z,49.06
2022-11-22T21:17:41.919Z,49.72
2022-11-22T21:20:06.830Z,48.92
2022-11-22T21:22:33.379Z,49.55
2022-11-22T21:24:59.782Z,49.30
2022-11-22T21:27:26.278Z,49.12
2022-11-22T21:29:53.969Z,49.14
2022-11-22T21:32:20.367Z,49.06
2022-11-22T21:34:46.698Z,48.96
2022-11-22T21:37:13.016Z,49.53
2022-11-22T21:39:39.524Z,49.08
2022-11-22T21:42:05.886Z,49.48
2022-11-22T21:44:33.726Z,49.59
2022-11-22T21:47:00.324Z,49.65
2022-11-22T21:49:26.657Z,48.92
2022-11-22T21:51:53.045Z,49.25
2022-11-22T21:54:19.594Z,49.06
2022-11-22T21:56:47.745Z,49.03
2022-11-22T21:59:14.092Z,49.13
2022-11-22T22:01:40.502Z,49.09
2022-11-22T22:04:07.049Z,49.02
2022-11-22T22:06:34.437Z,49.18
2022-11-22T22:09:01.104Z,48.89
2022-11-22T22:11:27.463Z,48.92
2022-11-22T22:13:55.016Z,49.03
2022-11-22T22:16:23.931Z,49.25
2022-11-22T22:18:50.361Z,49.09
2022-11-22T22:21:18.237Z,49.02
2022-11-22T22:23:45.850Z,49.05
2022-11-22T22:26:15.413Z,49.10
2022-11-22T22:28:44.852Z,48.99
2022-11-22T22:31:23.021Z,48.95
2022-11-22T22:33:57.468Z,48.88
2022-11-22T22:36:25.749Z,48.67
2022-11-22T22:38:52.309Z,48.98
2022-11-22T22:41:19.191Z,48.62
2022-11-22T22:43:48.019Z,48.50
2022-11-22T22:46:15.740Z,48.71
2022-11-22T22:48:43.037Z,48.89
2022-11-22T22:51:15.314Z,48.86
2022-11-22T22:53:42.715Z,48.66
2022-11-22T22:56:09.928Z,48.61
2022-11-22T22:58:36.936Z,48.57
2022-11-22T23:01:06.161Z,48.33
2022-11-22T23:03:33.119Z,48.47
2022-11-22T23:06:03.874Z,48.56
2022-11-22T23:08:30.234Z,48.95
2022-11-22T23:11:03.229Z,48.49
2022-11-22T23:13:29.759Z,48.45
2022-11-22T23:15:59.029Z,48.36
2022-11-22T23:18:25.488Z,48.32
2022-11-22T23:20:52.155Z,48.50
2022-11-22T23:23:18.466Z,48.36
2022-11-22T23:25:46.259Z,48.75
2022-11-22T23:28:12.628Z,48.62
2022-11-22T23:30:39.320Z,48.76
2022-11-22T23:33:08.815Z,48.66
2022-11-22T23:35:35.645Z,48.85
2022-11-22T23:38:03.661Z,48.95
2022-11-22T23:40:30.960Z,48.69
2022-11-22T23:42:58.534Z,48.55
2022-11-22T23:45:25.064Z,48.63
2022-11-22T23:47:52.280Z,48.52
2022-11-22T23:50:19.136Z,48.63
2022-11-22T23:52:45.502Z,48.51
2022-11-22T23:55:12.130Z,48.93
2022-11-22T23:57:38.511Z,48.38
